createdAt,value
2022-12-11T00:00:40.362Z,66.35
2022-12-11T00:03:10.265Z,61.87
2022-12-11T00:05:40.742Z,70.35
2022-12-11T00:08:07.600Z,72.45
2022-12-11T00:10:37.966Z,66.85
2022-12-11T00:13:05.673Z,78.07
2022-12-11T00:15:32.606Z,77.27
2022-12-11T00:17:59.390Z,78.70
2022-12-11T00:20:28.793Z,80.00
2022-12-11T00:22:57.520Z,73.80
2022-12-11T00:25:27.545Z,77.90
2022-12-11T00:27:54.316Z,74.80
2022-12-11T00:30:20.882Z,73.18
2022-12-11T00:32:47.481Z,66.78
2022-12-11T00:35:18.019Z,70.05
2022-12-11T00:37:48.025Z,69.50
2022-12-11T00:40:17.507Z,71.17
2022-12-11T00:42:43.968Z,68.85
2022-12-11T00:45:10.861Z,68.05
2022-12-11T00:47:37.945Z,64.75
2022-12-11T00:50:04.931Z,66.20
2022-12-11T00:52:31.440Z,63.87
2022-12-11T00:54:57.948Z,61.40
2022-12-11T00:57:27.243Z,55.70
2022-12-11T00:59:57.295Z,53.70
2022-12-11T01:02:33.977Z,53.72
2022-12-11T01:05:00.878Z,52.83
2022-12-11T01:07:27.645Z,54.58
2022-12-11T01:09:55.103Z,49.38
2022-12-11T01:12:22.590Z,49.92
2022-12-11T01:14:52.289Z,45.97
2022-12-11T01:17:18.882Z,48.00
2022-12-11T01:19:48.589Z,49.90
2022-12-11T01:22:17.457Z,45.00
2022-12-11T01:24:44.170Z,49.20
2022-12-11T01:27:10.652Z,49.80
2022-12-11T01:29:37.281Z,48.30
2022-12-11T01:32:04.483Z,53.70
2022-12-11T01:34:32.174Z,53.60
2022-12-11T01:36:59.141Z,59.15
2022-12-11T01:39:28.459Z,53.95
2022-12-11T01:41:59.788Z,57.43
2022-12-11T01:44:29.010Z,57.70
2022-12-11T01:46:58.852Z,58.90
2022-12-11T01:49:27.554Z,59.88
2022-12-11T01:52:06.132Z,55.58
2022-12-11T01:54:33.573Z,56.67
2022-12-11T01:57:04.900Z,56.53
2022-12-11T01:59:35.317Z,57.72
2022-12-11T02:02:12.196Z,59.88
2022-12-11T02:04:39.986Z,59.70
2022-12-11T02:07:06.572Z,57.67
2022-12-11T02:09:37.375Z,54.97
2022-12-11T02:12:15.706Z,63.00
2022-12-11T02:14:48.596Z,59.97
2022-12-11T02:17:22.209Z,49.58
2022-12-11T02:20:03.052Z,64.63
2022-12-11T02:22:35.293Z,57.60
2022-12-11T02:25:29.453Z,59.67
2022-12-11T02:28:16.926Z,53.47
2022-12-11T02:30:51.760Z,60.88
2022-12-11T02:33:24.974Z,55.00
2022-12-11T02:35:52.799Z,58.38
2022-12-11T02:38:26.909Z,56.97
2022-12-11T02:40:55.984Z,54.38
2022-12-11T02:43:24.157Z,57.92
2022-12-11T02:45:52.457Z,57.53
2022-12-11T02:48:21.082Z,58.85
2022-12-11T02:50:50.219Z,56.40
2022-12-11T02:53:20.530Z,53.90
2022-12-11T02:55:52.147Z,54.25
2022-12-11T02:58:28.443Z,58.50
2022-12-11T03:00:54.929Z,61.70
2022-12-11T03:03:22.037Z,62.10
2022-12-11T03:05:48.531Z,63.83
2022-12-11T03:08:15.043Z,64.45
2022-12-11T03:10:41.598Z,61.27
2022-12-11T03:13:08.065Z,60.17
2022-12-11T03:16:03.133Z,59.20
2022-12-11T03:18:59.305Z,55.85
2022-12-11T03:21:38.174Z,55.17
2022-12-11T03:24:10.108Z,51.83
2022-12-11T03:26:42.283Z,58.63
2022-12-11T03:29:21.004Z,51.50
2022-12-11T03:31:57.389Z,50.80
2022-12-11T03:34:31.559Z,52.03
2022-12-11T03:36:59.975Z,45.63
2022-12-11T03:39:37.928Z,50.60
2022-12-11T03:42:08.281Z,45.10
2022-12-11T03:44:36.835Z,44.17
2022-12-11T03:47:08.017Z,49.65
2022-12-11T03:49:39.590Z,43.90
2022-12-11T03:52:09.390Z,42.20
2022-12-11T03:54:37.958Z,42.88
2022-12-11T03:57:06.172Z,46.67
2022-12-11T03:59:32.659Z,43.33
2022-12-11T04:01:59.301Z,43.83
2022-12-11T04:04:25.816Z,46.33
2022-12-11T04:06:52.550Z,45.50
2022-12-11T04:09:19.130Z,47.13
2022-12-11T04:11:45.779Z,42.75
2022-12-11T04:14:13.998Z,46.83
2022-12-11T04:16:40.477Z,42.92
2022-12-11T04:19:06.978Z,47.63
2022-12-11T04:21:39.085Z,41.20
2022-12-11T04:24:06.299Z,45.63
2022-12-11T04:26:32.957Z,48.03
2022-12-11T04:28:59.475Z,49.53
2022-12-11T04:31:26.067Z,42.92
2022-12-11T04:33:52.552Z,45.55
2022-12-11T04:36:19.001Z,45.42
2022-12-11T04:38:45.497Z,40.27
2022-12-11T04:41:14.521Z,41.35
2022-12-11T04:43:41.732Z,40.10
2022-12-11T04:46:12.941Z,41.85
2022-12-11T04:48:40.249Z,39.92
2022-12-11T04:51:08.349Z,43.00
2022-12-11T04:53:35.296Z,37.20
2022-12-11T04:56:05.077Z,37.40
2022-12-11T04:58:31.549Z,36.33
2022-12-11T05:00:58.040Z,40.25
2022-12-11T05:03:24.666Z,38.37
2022-12-11T05:05:53.260Z,38.22
2022-12-11T05:08:21.182Z,36.58
2022-12-11T05:11:03.780Z,39.42
2022-12-11T05:13:30.998Z,38.25
2022-12-11T05:15:58.277Z,36.27
2022-12-11T05:18:25.504Z,39.10
2022-12-11T05:21:00.337Z,41.88
2022-12-11T05:23:27.650Z,42.83
2022-12-11T05:25:58.638Z,43.47
2022-12-11T05:28:26.978Z,43.33
2022-12-11T05:31:02.737Z,41.50
2022-12-11T05:33:29.323Z,43.30
2022-12-11T05:35:56.123Z,38.17
2022-12-11T05:38:23.426Z,37.80
2022-12-11T05:41:01.314Z,37.97
2022-12-11T05:43:30.983Z,43.13
2022-12-11T05:46:05.936Z,40.03
2022-12-11T05:48:32.421Z,39.03
2022-12-11T05:51:00.585Z,42.13
2022-12-11T05:53:27.530Z,40.97
2022-12-11T05:55:54.594Z,42.35
2022-12-11T05:58:21.635Z,44.53
2022-12-11T06:00:48.401Z,43.67
2022-12-11T06:03:15.612Z,41.15
2022-12-11T06:05:42.935Z,42.20
2022-12-11T06:08:09.919Z,46.63
2022-12-11T06:10:36.754Z,41.08
2022-12-11T06:13:03.505Z,45.72
2022-12-11T06:15:30.078Z,43.75
2022-12-11T06:17:56.576Z,43.40
2022-12-11T06:20:23.186Z,44.80
2022-12-11T06:22:49.686Z,40.83
2022-12-11T06:25:16.177Z,42.55
2022-12-11T06:27:42.662Z,43.80
2022-12-11T06:30:09.687Z,41.53
2022-12-11T06:32:36.198Z,39.35
2022-12-11T06:35:02.794Z,38.40
2022-12-11T06:37:29.284Z,42.72
2022-12-11T06:39:55.760Z,40.25
2022-12-11T06:42:22.181Z,41.87
2022-12-11T06:44:48.935Z,42.00
2022-12-11T06:47:15.456Z,36.75
2022-12-11T06:49:41.896Z,45.40
2022-12-11T06:52:09.966Z,40.88
2022-12-11T06:54:38.127Z,42.63
2022-12-11T06:57:04.712Z,43.63
2022-12-11T06:59:31.253Z,43.72
2022-12-11T07:01:57.754Z,46.45
2022-12-11T07:04:24.325Z,45.30
2022-12-11T07:06:50.800Z,45.77
2022-12-11T07:09:17.298Z,46.15
2022-12-11T07:11:43.763Z,53.08
2022-12-11T07:14:10.326Z,47.88
2022-12-11T07:16:36.957Z,44.45
2022-12-11T07:19:03.811Z,46.07
2022-12-11T07:21:30.287Z,43.58
2022-12-11T07:23:56.706Z,45.65
2022-12-11T07:26:23.239Z,44.97
2022-12-11T07:28:49.974Z,48.00
2022-12-11T07:31:23.270Z,46.67
2022-12-11T07:34:02.009Z,46.65
2022-12-11T07:36:29.193Z,49.67
2022-12-11T07:38:56.109Z,45.38
2022-12-11T07:41:23.233Z,44.53
2022-12-11T07:43:49.765Z,44.00
2022-12-11T07:46:19.459Z,42.50
2022-12-11T07:48:47.682Z,48.53
2022-12-11T07:51:21.975Z,49.10
2022-12-11T07:53:50.059Z,49.50
2022-12-11T07:56:18.324Z,45.73
2022-12-11T07:58:45.261Z,47.25
2022-12-11T08:01:20.642Z,52.60
2022-12-11T08:03:47.701Z,48.90
2022-12-11T08:06:14.383Z,54.42
2022-12-11T08:08:41.733Z,50.73
2022-12-11T08:11:11.216Z,49.42
2022-12-11T08:13:39.435Z,52.67
2022-12-11T08:16:11.738Z,49.00
2022-12-11T08:18:38.804Z,54.30
2022-12-11T08:21:07.043Z,54.33
2022-12-11T08:23:33.954Z,54.08
2022-12-11T08:26:02.788Z,59.33
2022-12-11T08:28:29.281Z,52.30
2022-12-11T08:30:55.963Z,56.50
2022-12-11T08:33:22.660Z,55.53
2022-12-11T08:35:49.191Z,55.13
2022-12-11T08:38:17.661Z,52.72
2022-12-11T08:40:46.164Z,53.70
2022-12-11T08:43:12.585Z,60.13
2022-12-11T08:45:39.037Z,58.50
2022-12-11T08:48:05.860Z,56.08
2022-12-11T08:50:32.703Z,59.90
2022-12-11T08:52:59.183Z,58.00
2022-12-11T08:55:25.611Z,60.42
2022-12-11T08:57:52.160Z,58.33
2022-12-11T09:00:18.857Z,58.05
2022-12-11T09:02:45.477Z,60.22
2022-12-11T09:05:12.288Z,61.58
2022-12-11T09:07:38.974Z,59.78
2022-12-11T09:10:07.336Z,61.00
2022-12-11T09:12:34.846Z,62.05
2022-12-11T09:15:01.335Z,60.00
2022-12-11T09:17:27.867Z,62.55
2022-12-11T09:19:54.633Z,61.33
2022-12-11T09:22:21.161Z,58.50
2022-12-11T09:24:47.606Z,50.28
2022-12-11T09:27:14.007Z,64.22
2022-12-11T09:29:40.579Z,67.43
2022-12-11T09:32:07.290Z,59.55
2022-12-11T09:34:33.764Z,62.70
2022-12-11T09:37:00.256Z,57.67
2022-12-11T09:39:26.754Z,57.30
2022-12-11T09:42:04.328Z,56.08
2022-12-11T09:44:35.288Z,57.80
2022-12-11T09:47:02.032Z,64.43
2022-12-11T09:49:41.333Z,60.58
2022-12-11T09:52:25.946Z,61.65
2022-12-11T09:54:59.903Z,56.92
2022-12-11T09:57:32.625Z,59.67
2022-12-11T10:00:13.827Z,65.20
2022-12-11T10:03:12.630Z,61.80
2022-12-11T10:06:05.008Z,58.67
2022-12-11T10:08:54.012Z,55.80
2022-12-11T10:11:35.730Z,60.75
2022-12-11T10:14:08.196Z,65.63
2022-12-11T10:16:40.139Z,64.65
2022-12-11T10:19:16.874Z,58.58
2022-12-11T10:21:44.168Z,55.28
2022-12-11T10:24:59.315Z,51.42
2022-12-11T10:27:20.033Z,51.23
2022-12-11T10:29:51.526Z,50.05
2022-12-11T10:32:40.303Z,53.05
2022-12-11T10:35:07.291Z,56.70
2022-12-11T10:37:33.827Z,53.10
2022-12-11T10:40:00.345Z,52.83
2022-12-11T10:42:27.006Z,54.08
2022-12-11T10:45:01.337Z,56.33
2022-12-11T10:47:28.859Z,56.50
2022-12-11T10:50:00.983Z,49.42
2022-12-11T10:52:35.605Z,51.97
2022-12-11T10:55:17.546Z,56.38
2022-12-11T10:57:44.256Z,54.88
2022-12-11T11:00:30.940Z,53.88
2022-12-11T11:02:58.195Z,54.90
2022-12-11T11:05:36.390Z,59.27
2022-12-11T11:08:10.010Z,55.75
2022-12-11T11:10:36.524Z,55.75
2022-12-11T11:13:03.019Z,60.08
2022-12-11T11:15:30.894Z,57.55
2022-12-11T11:18:15.910Z,54.83
2022-12-11T11:20:48.440Z,52.80
2022-12-11T11:23:16.452Z,53.97
2022-12-11T11:25:52.369Z,58.50
2022-12-11T11:28:30.999Z,50.78
2022-12-11T11:31:02.386Z,55.27
2022-12-11T11:33:30.177Z,57.50
2022-12-11T11:36:05.520Z,55.42
2022-12-11T11:38:35.768Z,50.28
2022-12-11T11:41:24.145Z,58.35
2022-12-11T11:43:58.041Z,55.20
2022-12-11T11:46:38.520Z,50.92
2022-12-11T11:49:44.610Z,52.50
2022-12-11T11:52:23.356Z,46.97
2022-12-11T11:54:56.685Z,58.10
2022-12-11T11:57:40.510Z,49.47
2022-12-11T12:00:17.818Z,55.58
2022-12-11T12:02:45.171Z,53.63
2022-12-11T12:05:16.658Z,50.50
2022-12-11T12:08:10.026Z,51.08
2022-12-11T12:11:05.047Z,52.13
2022-12-11T12:13:49.883Z,53.92
2022-12-11T12:16:52.197Z,51.90
2022-12-11T12:19:22.712Z,53.53
2022-12-11T12:21:51.942Z,52.35
2022-12-11T12:24:43.170Z,52.63
2022-12-11T12:27:50.415Z,55.30
2022-12-11T12:30:22.106Z,53.55
2022-12-11T12:33:04.459Z,44.53
2022-12-11T12:35:35.099Z,42.10
2022-12-11T12:38:23.500Z,34.07
2022-12-11T12:41:10.307Z,41.85
2022-12-11T12:43:46.747Z,40.80
2022-12-11T12:46:33.342Z,43.78
2022-12-11T12:49:02.501Z,44.22
2022-12-11T12:51:30.082Z,42.70
2022-12-11T12:54:05.575Z,39.33
2022-12-11T12:56:38.096Z,42.20
2022-12-11T12:59:04.634Z,39.38
2022-12-11T13:01:31.442Z,40.25
2022-12-11T13:04:13.279Z,41.70
2022-12-11T13:06:47.371Z,41.25
2022-12-11T13:09:22.206Z,39.70
2022-12-11T13:11:51.166Z,41.08
2022-12-11T13:14:17.559Z,41.95
2022-12-11T13:16:49.012Z,37.30
2022-12-11T13:19:24.510Z,38.67
2022-12-11T13:22:06.136Z,39.90
2022-12-11T13:24:33.743Z,43.33
2022-12-11T13:27:11.984Z,40.75
2022-12-11T13:29:42.562Z,41.40
2022-12-11T13:32:08.931Z,41.50
2022-12-11T13:34:38.976Z,46.03
2022-12-11T13:37:06.080Z,42.90
2022-12-11T13:39:35.439Z,39.85
2022-12-11T13:42:05.316Z,38.50
2022-12-11T13:44:41.777Z,41.65
2022-12-11T13:47:14.054Z,42.92
2022-12-11T13:49:43.500Z,36.13
2022-12-11T13:52:25.152Z,40.50
2022-12-11T13:54:53.955Z,36.67
2022-12-11T13:57:23.962Z,38.33
2022-12-11T13:59:55.813Z,39.08
2022-12-11T14:02:29.937Z,40.13
2022-12-11T14:05:01.477Z,41.45
2022-12-11T14:07:35.168Z,42.03
2022-12-11T14:10:29.580Z,38.50
2022-12-11T14:12:59.007Z,39.75
2022-12-11T14:15:28.056Z,42.67
2022-12-11T14:17:55.669Z,42.30
2022-12-11T14:20:28.711Z,46.90
2022-12-11T14:23:16.699Z,41.50
2022-12-11T14:25:51.575Z,41.42
2022-12-11T14:28:18.125Z,43.78
2022-12-11T14:30:51.519Z,42.65
2022-12-11T14:33:20.819Z,39.20
2022-12-11T14:35:48.940Z,42.97
2022-12-11T14:38:22.174Z,37.65
2022-12-11T14:40:53.213Z,41.90
2022-12-11T14:43:45.930Z,42.60
2022-12-11T14:46:23.752Z,40.00
2022-12-11T14:49:01.251Z,42.58
2022-12-11T14:51:33.556Z,40.63
2022-12-11T14:54:00.761Z,36.83
2022-12-11T14:56:29.569Z,39.00
2022-12-11T14:58:58.180Z,43.10
2022-12-11T15:01:29.455Z,38.40
2022-12-11T15:04:19.672Z,38.58
2022-12-11T15:06:48.646Z,38.33
2022-12-11T15:09:40.571Z,37.00
2022-12-11T15:12:16.684Z,72.07
2022-12-11T15:14:53.952Z,44.03
2022-12-11T15:17:22.667Z,50.63
2022-12-11T15:19:52.991Z,45.50
2022-12-11T15:22:22.441Z,41.10
2022-12-11T15:24:52.611Z,37.70
2022-12-11T15:27:19.149Z,39.15
2022-12-11T15:29:45.767Z,42.08
2022-12-11T15:32:12.191Z,42.00
2022-12-11T15:34:46.248Z,37.50
2022-12-11T15:37:18.827Z,37.90
2022-12-11T15:39:45.376Z,41.00
2022-12-11T15:42:16.197Z,41.95
2022-12-11T15:44:42.785Z,40.85
2022-12-11T15:47:19.662Z,39.08
2022-12-11T15:49:46.260Z,38.83
2022-12-11T15:52:12.859Z,39.50
2022-12-11T15:54:39.305Z,50.00
2022-12-11T15:57:11.268Z,39.67
2022-12-11T15:59:37.839Z,39.95
2022-12-11T16:02:04.309Z,41.07
2022-12-11T16:04:30.904Z,39.47
2022-12-11T16:06:57.684Z,38.50
2022-12-11T16:09:24.173Z,41.15
2022-12-11T16:11:50.752Z,48.47
2022-12-11T16:14:17.219Z,41.67
2022-12-11T16:16:43.800Z,37.17
2022-12-11T16:19:10.279Z,39.72
2022-12-11T16:21:36.789Z,38.70
2022-12-11T16:24:03.631Z,40.20
2022-12-11T16:26:30.219Z,38.33
2022-12-11T16:28:56.929Z,36.83
2022-12-11T16:31:23.650Z,40.25
2022-12-11T16:33:50.157Z,42.95
2022-12-11T16:36:19.108Z,40.47
2022-12-11T16:38:53.572Z,39.53
2022-12-11T16:41:20.958Z,36.92
2022-12-11T16:43:47.423Z,41.63
2022-12-11T16:46:18.172Z,44.40
2022-12-11T16:48:45.190Z,40.70
2022-12-11T16:51:11.818Z,42.53
2022-12-11T16:53:38.528Z,48.55
2022-12-11T16:56:06.199Z,40.60
2022-12-11T16:58:33.337Z,40.58
2022-12-11T17:01:00.041Z,40.30
2022-12-11T17:03:26.664Z,42.07
2022-12-11T17:05:53.098Z,41.33
2022-12-11T17:08:19.586Z,46.97
2022-12-11T17:10:46.082Z,43.15
2022-12-11T17:13:12.884Z,41.03
2022-12-11T17:15:41.281Z,44.93
2022-12-11T17:18:08.545Z,42.80
2022-12-11T17:20:35.010Z,43.47
2022-12-11T17:23:01.675Z,43.88
2022-12-11T17:25:28.243Z,45.00
2022-12-11T17:27:55.243Z,42.03
2022-12-11T17:30:21.782Z,42.22
2022-12-11T17:32:48.579Z,44.63
2022-12-11T17:35:15.240Z,41.47
2022-12-11T17:37:41.776Z,45.58
2022-12-11T17:40:08.784Z,42.70
2022-12-11T17:42:35.357Z,42.60
2022-12-11T17:45:01.929Z,44.67
2022-12-11T17:47:28.782Z,43.40
2022-12-11T17:49:55.419Z,44.10
2022-12-11T17:52:22.035Z,44.23
2022-12-11T17:54:48.480Z,44.47
2022-12-11T17:57:15.013Z,43.58
2022-12-11T17:59:41.446Z,44.20
2022-12-11T18:02:09.942Z,42.33
2022-12-11T18:04:38.402Z,44.33
2022-12-11T18:07:05.895Z,42.30
2022-12-11T18:09:32.780Z,42.53
2022-12-11T18:11:59.525Z,41.10
2022-12-11T18:14:26.093Z,45.58
2022-12-11T18:16:52.757Z,46.87
2022-12-11T18:19:19.247Z,45.75
2022-12-11T18:21:46.293Z,42.75
2022-12-11T18:24:13.082Z,45.70
2022-12-11T18:26:39.627Z,46.35
2022-12-11T18:29:06.229Z,46.63
2022-12-11T18:31:35.369Z,47.95
2022-12-11T18:34:06.453Z,48.83
2022-12-11T18:36:33.833Z,48.92
2022-12-11T18:39:00.613Z,49.25
2022-12-11T18:41:27.194Z,45.70
2022-12-11T18:43:54.922Z,53.67
2022-12-11T18:46:21.823Z,51.88
2022-12-11T18:48:48.777Z,49.95
2022-12-11T18:51:18.686Z,48.20
2022-12-11T18:53:45.314Z,42.97
2022-12-11T18:56:14.911Z,43.10
2022-12-11T18:58:41.870Z,44.55
2022-12-11T19:01:13.474Z,50.97
2022-12-11T19:03:40.309Z,49.55
2022-12-11T19:06:10.223Z,45.87
2022-12-11T19:08:36.778Z,63.00
2022-12-11T19:11:03.954Z,47.05
2022-12-11T19:13:30.585Z,49.15
2022-12-11T19:15:57.175Z,51.28
2022-12-11T19:18:23.749Z,46.50
2022-12-11T19:20:55.409Z,51.30
2022-12-11T19:23:29.591Z,52.03
2022-12-11T19:25:56.117Z,46.33
2022-12-11T19:28:22.661Z,48.67
2022-12-11T19:30:49.230Z,50.73
2022-12-11T19:33:16.296Z,53.20
2022-12-11T19:35:43.383Z,57.88
2022-12-11T19:38:10.134Z,54.40
2022-12-11T19:40:42.232Z,52.00
2022-12-11T19:43:09.419Z,53.60
2022-12-11T19:45:36.636Z,48.17
2022-12-11T19:48:03.439Z,50.40
2022-12-11T19:50:30.000Z,49.83
2022-12-11T19:52:56.443Z,50.47
2022-12-11T19:55:22.991Z,50.17
2022-12-11T19:57:49.478Z,53.92
2022-12-11T20:00:16.293Z,56.72
2022-12-11T20:02:43.047Z,163.63
2022-12-11T20:05:10.152Z,118.57
2022-12-11T20:07:37.021Z,72.50
2022-12-11T20:10:03.890Z,51.80
2022-12-11T20:12:30.328Z,50.30
2022-12-11T20:14:56.804Z,50.05
2022-12-11T20:17:23.347Z,48.35
2022-12-11T20:19:49.907Z,50.77
2022-12-11T20:22:16.412Z,50.65
2022-12-11T20:24:42.928Z,50.83
2022-12-11T20:27:09.449Z,49.80
2022-12-11T20:29:35.953Z,48.28
2022-12-11T20:32:02.577Z,52.87
2022-12-11T20:34:29.281Z,47.15
2022-12-11T20:36:55.814Z,48.38
2022-12-11T20:39:22.285Z,51.42
2022-12-11T20:41:48.945Z,50.17
2022-12-11T20:44:15.495Z,47.97
2022-12-11T20:46:42.014Z,47.97
2022-12-11T20:49:08.577Z,49.83
2022-12-11T20:51:35.027Z,52.67
2022-12-11T20:54:01.513Z,50.25
2022-12-11T20:56:31.143Z,49.57
2022-12-11T20:58:59.099Z,54.60
2022-12-11T21:01:27.997Z,54.90
2022-12-11T21:03:54.558Z,47.67
2022-12-11T21:06:26.614Z,50.00
2022-12-11T21:08:53.757Z,50.03
2022-12-11T21:11:21.030Z,48.05
2022-12-11T21:13:47.594Z,49.97
2022-12-11T21:16:14.302Z,45.45
2022-12-11T21:18:41.217Z,45.67
2022-12-11T21:21:07.734Z,41.93
2022-12-11T21:23:34.226Z,44.95
2022-12-11T21:26:00.918Z,41.40
2022-12-11T21:28:33.602Z,43.58
2022-12-11T21:31:07.806Z,42.58
2022-12-11T21:33:35.454Z,42.03
2022-12-11T21:36:06.547Z,43.58
2022-12-11T21:38:33.284Z,47.20
2022-12-11T21:41:08.095Z,42.20
2022-12-11T21:43:34.653Z,39.45
2022-12-11T21:46:02.341Z,38.90
2022-12-11T21:48:29.138Z,44.08
2022-12-11T21:50:56.143Z,41.78
2022-12-11T21:53:22.695Z,41.47
2022-12-11T21:55:49.257Z,44.20
2022-12-11T21:58:15.777Z,43.43
2022-12-11T22:00:42.454Z,43.70
2022-12-11T22:03:09.252Z,44.60
2022-12-11T22:05:35.814Z,44.67
2022-12-11T22:08:02.532Z,43.00
2022-12-11T22:10:29.250Z,45.77
2022-12-11T22:12:55.824Z,44.90
2022-12-11T22:15:22.501Z,40.42
2022-12-11T22:17:49.096Z,43.58
2022-12-11T22:20:15.817Z,46.20
2022-12-11T22:22:42.492Z,49.37
2022-12-11T22:25:09.482Z,51.13
2022-12-11T22:27:36.330Z,45.30
2022-12-11T22:30:05.646Z,47.85
2022-12-11T22:32:32.249Z,45.35
2022-12-11T22:34:58.778Z,45.03
2022-12-11T22:37:25.355Z,49.63
2022-12-11T22:39:51.870Z,49.40
2022-12-11T22:42:18.370Z,47.92
2022-12-11T22:44:44.880Z,49.85
2022-12-11T22:47:11.850Z,46.70
2022-12-11T22:49:38.371Z,52.70
2022-12-11T22:52:05.444Z,49.67
2022-12-11T22:54:32.057Z,49.83
2022-12-11T22:56:58.892Z,53.80
2022-12-11T22:59:25.493Z,55.30
2022-12-11T23:01:52.067Z,53.20
2022-12-11T23:04:18.548Z,51.15
2022-12-11T23:06:45.037Z,54.72
2022-12-11T23:09:12.061Z,55.60
2022-12-11T23:11:39.153Z,54.43
2022-12-11T23:14:07.790Z,56.08
2022-12-11T23:16:34.749Z,58.55
2022-12-11T23:19:01.245Z,58.00
2022-12-11T23:21:28.076Z,61.38
2022-12-11T23:23:55.433Z,58.20
2022-12-11T23:26:22.840Z,61.67
2022-12-11T23:28:49.403Z,60.25
2022-12-11T23:31:17.085Z,62.42
2022-12-11T23:33:43.798Z,63.00
2022-12-11T23:36:10.693Z,59.03
2022-12-11T23:38:37.978Z,63.40
2022-12-11T23:41:06.027Z,66.88
2022-12-11T23:43:34.807Z,61.95
2022-12-11T23:46:01.547Z,66.65
2022-12-11T23:48:28.165Z,65.87
2022-12-11T23:50:59.592Z,67.95
2022-12-11T23:53:27.260Z,66.20
2022-12-11T23:55:54.019Z,66.50
2022-12-11T23:58:20.591Z,63.65
